createdAt,value
2023-05-21T00:00:54.049Z,13.67
2023-05-21T00:03:43.027Z,13.61
2023-05-21T00:06:15.532Z,13.56
2023-05-21T00:08:47.449Z,13.53
2023-05-21T00:11:19.420Z,13.51
2023-05-21T00:13:51.412Z,13.49
2023-05-21T00:16:23.517Z,13.44
2023-05-21T00:18:55.647Z,13.39
2023-05-21T00:21:32.218Z,13.30
2023-05-21T00:24:03.155Z,13.23
2023-05-21T00:26:34.961Z,13.18
2023-05-21T00:29:07.568Z,13.12
2023-05-21T00:31:39.407Z,13.06
2023-05-21T00:34:11.308Z,13.03
2023-05-21T00:36:45.525Z,13.01
2023-05-21T00:39:17.915Z,13.01
2023-05-21T00:41:49.960Z,12.98
2023-05-21T00:44:22.121Z,12.95
2023-05-21T00:46:54.689Z,12.91
2023-05-21T00:49:26.530Z,12.86
2023-05-21T00:52:01.534Z,12.82
2023-05-21T00:54:33.587Z,12.79
2023-05-21T00:57:05.859Z,12.75
2023-05-21T00:59:37.732Z,12.74
2023-05-21T01:02:09.831Z,12.70
2023-05-21T01:04:43.778Z,12.67
2023-05-21T01:07:15.938Z,12.61
2023-05-21T01:09:47.794Z,12.58
2023-05-21T01:12:20.271Z,12.53
2023-05-21T01:14:52.322Z,12.47
2023-05-21T01:17:24.629Z,12.42
2023-05-21T01:19:56.923Z,12.38
2023-05-21T01:22:30.838Z,12.34
2023-05-21T01:25:03.647Z,12.32
2023-05-21T01:27:35.519Z,12.30
2023-05-21T01:30:09.490Z,12.27
2023-05-21T01:32:46.520Z,12.24
2023-05-21T01:35:23.272Z,12.18
2023-05-21T01:38:01.601Z,12.11
2023-05-21T01:40:40.461Z,12.03
2023-05-21T01:43:12.510Z,11.95
2023-05-21T01:45:45.888Z,11.89
2023-05-21T01:48:18.444Z,11.83
2023-05-21T01:50:50.502Z,11.73
2023-05-21T01:53:22.296Z,11.71
2023-05-21T01:55:54.631Z,11.67
2023-05-21T01:58:26.477Z,11.65
2023-05-21T02:00:58.256Z,11.64
2023-05-21T02:03:31.886Z,11.59
2023-05-21T02:06:03.916Z,11.63
2023-05-21T02:08:35.746Z,11.61
2023-05-21T02:11:07.783Z,11.56
2023-05-21T02:13:42.682Z,11.52
2023-05-21T02:16:16.056Z,11.48
2023-05-21T02:18:51.406Z,11.42
2023-05-21T02:21:23.395Z,11.38
2023-05-21T02:23:55.801Z,11.37
2023-05-21T02:26:27.592Z,11.35
2023-05-21T02:28:59.371Z,11.33
2023-05-21T02:31:32.535Z,11.31
2023-05-21T02:34:04.634Z,11.30
2023-05-21T02:36:36.683Z,11.26
2023-05-21T02:39:08.530Z,11.22
2023-05-21T02:41:40.534Z,11.18
2023-05-21T02:44:12.621Z,11.12
2023-05-21T02:46:44.398Z,11.10
2023-05-21T02:49:17.096Z,11.11
2023-05-21T02:51:50.000Z,11.12
2023-05-21T02:54:22.052Z,11.14
2023-05-21T02:56:53.973Z,11.16
2023-05-21T02:59:25.838Z,11.17
2023-05-21T03:01:57.643Z,11.18
2023-05-21T03:04:30.082Z,11.17
2023-05-21T03:07:02.358Z,11.15
2023-05-21T03:09:34.164Z,11.13
2023-05-21T03:12:06.672Z,11.09
2023-05-21T03:14:39.033Z,11.13
2023-05-21T03:17:14.142Z,11.14
2023-05-21T03:19:46.242Z,11.15
2023-05-21T03:22:20.087Z,11.16
2023-05-21T03:24:53.483Z,11.18
2023-05-21T03:27:25.968Z,11.22
2023-05-21T03:29:59.092Z,11.25
2023-05-21T03:32:33.861Z,11.29
2023-05-21T03:35:06.622Z,11.33
2023-05-21T03:37:39.270Z,11.36
2023-05-21T03:40:12.896Z,11.41
2023-05-21T03:42:44.869Z,11.47
2023-05-21T03:45:16.860Z,11.53
2023-05-21T03:48:08.057Z,11.61
2023-05-21T03:50:39.908Z,11.69
2023-05-21T03:53:12.577Z,11.78
2023-05-21T03:55:44.835Z,11.87
2023-05-21T03:58:16.683Z,11.95
2023-05-21T04:00:48.537Z,12.03
2023-05-21T04:03:20.553Z,12.08
2023-05-21T04:05:52.710Z,12.15
2023-05-21T04:08:24.635Z,12.23
2023-05-21T04:10:56.454Z,12.33
2023-05-21T04:13:28.509Z,12.46
2023-05-21T04:16:00.675Z,12.58
2023-05-21T04:18:34.336Z,12.66
2023-05-21T04:21:07.617Z,12.75
2023-05-21T04:23:39.670Z,12.85
2023-05-21T04:26:16.834Z,12.97
2023-05-21T04:28:48.701Z,13.07
2023-05-21T04:31:21.174Z,13.17
2023-05-21T04:33:54.565Z,13.34
2023-05-21T04:36:29.087Z,13.73
2023-05-21T04:39:01.505Z,13.93
2023-05-21T04:41:33.831Z,14.05
2023-05-21T04:44:06.682Z,14.17
2023-05-21T04:46:41.606Z,14.34
2023-05-21T04:49:13.716Z,14.87
2023-05-21T04:51:45.600Z,15.26
2023-05-21T04:54:17.518Z,15.30
2023-05-21T04:56:50.252Z,15.35
2023-05-21T04:59:22.943Z,15.46
2023-05-21T05:01:54.731Z,15.50
2023-05-21T05:04:26.868Z,15.51
2023-05-21T05:06:59.632Z,15.55
2023-05-21T05:09:31.808Z,15.59
2023-05-21T05:12:03.879Z,15.65
2023-05-21T05:14:36.345Z,15.72
2023-05-21T05:17:09.987Z,15.77
2023-05-21T05:19:41.995Z,15.98
2023-05-21T05:22:13.866Z,16.54
2023-05-21T05:24:46.606Z,16.78
2023-05-21T05:27:19.111Z,16.80
2023-05-21T05:29:51.066Z,16.84
2023-05-21T05:32:22.968Z,16.90
2023-05-21T05:34:54.990Z,16.93
2023-05-21T05:37:26.851Z,16.99
2023-05-21T05:39:58.818Z,17.03
2023-05-21T05:42:30.725Z,17.06
2023-05-21T05:45:04.014Z,17.08
2023-05-21T05:47:36.159Z,17.16
2023-05-21T05:50:09.239Z,17.21
2023-05-21T05:52:41.392Z,17.26
2023-05-21T05:55:14.182Z,17.32
2023-05-21T05:57:46.122Z,17.38
2023-05-21T06:00:20.055Z,17.43
2023-05-21T06:02:53.813Z,17.50
2023-05-21T06:05:25.929Z,17.58
2023-05-21T06:07:57.849Z,17.67
2023-05-21T06:10:30.147Z,17.77
2023-05-21T06:13:02.034Z,17.90
2023-05-21T06:15:34.488Z,18.05
2023-05-21T06:18:07.244Z,18.14
2023-05-21T06:20:39.256Z,18.21
2023-05-21T06:23:11.095Z,18.29
2023-05-21T06:25:43.146Z,18.50
2023-05-21T06:28:15.718Z,19.22
2023-05-21T06:30:47.806Z,20.49
2023-05-21T06:33:21.586Z,21.83
2023-05-21T06:35:53.601Z,22.99
2023-05-21T06:38:25.594Z,23.99
2023-05-21T06:40:58.486Z,24.84
2023-05-21T06:43:50.807Z,25.76
2023-05-21T06:46:41.625Z,26.60
2023-05-21T06:49:15.055Z,27.18
2023-05-21T06:51:48.731Z,27.77
2023-05-21T06:54:20.907Z,28.30
2023-05-21T06:56:53.140Z,28.72
2023-05-21T06:59:25.013Z,29.18
2023-05-21T07:01:57.101Z,29.50
2023-05-21T07:04:29.250Z,29.78
2023-05-21T07:07:01.152Z,30.08
2023-05-21T07:09:33.464Z,30.35
2023-05-21T07:12:05.470Z,30.56
2023-05-21T07:14:37.851Z,30.64
2023-05-21T07:17:09.754Z,30.76
2023-05-21T07:19:41.918Z,30.82
2023-05-21T07:22:14.047Z,30.97
2023-05-21T07:24:45.955Z,31.16
2023-05-21T07:27:25.749Z,31.25
2023-05-21T07:29:59.610Z,31.30
2023-05-21T07:32:31.616Z,31.37
2023-05-21T07:35:03.904Z,31.50
2023-05-21T07:37:36.206Z,31.63
2023-05-21T07:40:11.040Z,31.68
2023-05-21T07:42:43.610Z,31.58
2023-05-21T07:45:16.328Z,31.54
2023-05-21T07:47:49.064Z,31.60
2023-05-21T07:50:21.113Z,31.56
2023-05-21T07:52:53.076Z,31.35
2023-05-21T07:55:25.550Z,31.21
2023-05-21T07:57:57.491Z,31.07
2023-05-21T08:00:47.460Z,31.07
2023-05-21T08:03:20.328Z,30.93
2023-05-21T08:05:52.433Z,30.56
2023-05-21T08:08:24.609Z,30.19
2023-05-21T08:10:58.172Z,29.88
2023-05-21T08:13:31.278Z,29.49
2023-05-21T08:16:03.320Z,29.10
2023-05-21T08:18:35.409Z,28.73
2023-05-21T08:21:07.469Z,28.44
2023-05-21T08:23:39.986Z,28.17
2023-05-21T08:26:11.907Z,28.01
2023-05-21T08:28:44.416Z,27.89
2023-05-21T08:31:17.307Z,27.66
2023-05-21T08:33:54.480Z,27.45
2023-05-21T08:36:31.642Z,27.18
2023-05-21T08:39:08.302Z,26.94
2023-05-21T08:41:44.273Z,26.77
2023-05-21T08:44:17.700Z,26.65
2023-05-21T08:46:52.486Z,26.56
2023-05-21T08:49:27.558Z,26.40
2023-05-21T08:52:01.484Z,26.27
2023-05-21T08:54:33.707Z,26.19
2023-05-21T08:57:06.485Z,26.08
2023-05-21T08:59:43.274Z,26.06
2023-05-21T09:02:20.083Z,26.04
2023-05-21T09:04:50.841Z,25.98
2023-05-21T09:07:22.897Z,25.92
2023-05-21T09:10:21.185Z,25.85
2023-05-21T09:12:53.668Z,25.80
2023-05-21T09:15:26.292Z,25.76
2023-05-21T09:17:58.716Z,25.73
2023-05-21T09:20:45.813Z,25.68
2023-05-21T09:23:19.834Z,25.70
2023-05-21T09:25:52.989Z,25.67
2023-05-21T09:28:32.565Z,25.59
2023-05-21T09:31:06.112Z,25.56
2023-05-21T09:33:38.249Z,25.55
2023-05-21T14:12:06.775Z,24.19
2023-05-21T14:14:38.721Z,24.20
2023-05-21T14:17:10.807Z,24.21
2023-05-21T14:19:42.632Z,24.23
2023-05-21T14:22:14.608Z,24.27
2023-05-21T14:24:47.020Z,24.32
2023-05-21T14:27:19.383Z,24.38
2023-05-21T14:29:51.173Z,24.45
2023-05-21T14:32:23.218Z,24.49
2023-05-21T14:34:55.417Z,24.55
2023-05-21T14:37:27.332Z,24.61
2023-05-21T14:39:59.274Z,24.68
2023-05-21T14:42:31.985Z,24.72
2023-05-21T14:45:17.457Z,24.76
2023-05-21T14:47:50.007Z,24.79
2023-05-21T14:50:32.015Z,24.79
2023-05-21T14:53:07.747Z,24.77
2023-05-21T14:55:39.918Z,24.78
2023-05-21T14:58:12.235Z,24.78
2023-05-21T15:00:44.090Z,24.74
2023-05-21T15:03:16.490Z,24.73
2023-05-21T15:05:48.453Z,24.73
2023-05-21T15:08:20.450Z,24.70
2023-05-21T15:10:52.316Z,24.65
2023-05-21T15:13:24.103Z,24.66
2023-05-21T15:15:56.212Z,24.64
2023-05-21T15:18:29.303Z,24.62
2023-05-21T15:21:01.325Z,24.57
2023-05-21T15:23:33.387Z,24.56
2023-05-21T15:26:05.488Z,24.57
2023-05-21T15:28:37.655Z,24.56
2023-05-21T15:31:09.535Z,24.52
2023-05-21T15:33:41.353Z,24.50
2023-05-21T15:36:13.398Z,24.48
2023-05-21T15:38:45.269Z,24.44
2023-05-21T15:41:17.162Z,24.40
2023-05-21T15:43:49.834Z,24.39
2023-05-21T15:46:21.760Z,24.38
2023-05-21T15:48:53.690Z,24.36
2023-05-21T15:51:25.592Z,24.32
2023-05-21T15:53:57.565Z,24.26
2023-05-21T15:56:29.578Z,24.23
2023-05-21T15:59:01.513Z,24.19
2023-05-21T16:01:33.650Z,24.15
2023-05-21T16:04:06.411Z,24.15
2023-05-21T16:06:38.395Z,24.11
2023-05-21T16:09:10.186Z,24.10
2023-05-21T16:11:43.987Z,24.07
2023-05-21T16:14:14.220Z,24.03
2023-05-21T16:16:46.039Z,23.94
2023-05-21T16:19:17.986Z,23.89
2023-05-21T16:21:49.856Z,23.82
2023-05-21T16:24:21.791Z,23.76
2023-05-21T16:26:53.708Z,23.69
2023-05-21T16:29:25.509Z,23.61
2023-05-21T16:31:57.387Z,23.59
2023-05-21T16:34:29.240Z,23.53
2023-05-21T16:37:01.103Z,23.47
2023-05-21T16:39:32.906Z,23.39
2023-05-21T16:42:04.889Z,23.36
2023-05-21T16:44:37.976Z,23.29
2023-05-21T17:02:34.007Z,22.76
2023-05-21T17:05:07.024Z,22.63
2023-05-21T17:07:39.417Z,22.59
2023-05-21T17:10:12.406Z,22.50
2023-05-21T17:12:44.544Z,22.44
2023-05-21T17:15:16.473Z,22.35
2023-05-21T17:17:48.364Z,22.25
2023-05-21T17:20:20.230Z,22.15
2023-05-21T17:22:52.072Z,22.06
2023-05-21T17:25:25.267Z,21.96
2023-05-21T17:27:57.476Z,21.88
2023-05-21T17:30:29.255Z,21.79
2023-05-21T17:39:31.457Z,21.52
2023-05-21T17:42:00.426Z,21.43
2023-05-21T17:44:28.823Z,21.32
2023-05-21T17:46:57.262Z,21.21
2023-05-21T17:49:25.779Z,21.09
2023-05-21T17:51:55.060Z,20.99
2023-05-21T17:54:23.554Z,20.88
2023-05-21T17:56:52.168Z,20.78
2023-05-21T17:59:21.323Z,20.65
2023-05-21T18:01:50.913Z,20.52
2023-05-21T18:04:20.148Z,20.35
2023-05-21T18:06:48.630Z,20.23
2023-05-21T18:09:17.032Z,20.09
2023-05-21T18:11:45.438Z,19.91
2023-05-21T18:14:13.936Z,19.80
2023-05-21T18:16:42.729Z,19.64
2023-05-21T18:19:11.380Z,19.45
2023-05-21T18:21:39.961Z,19.34
2023-05-21T18:24:09.116Z,19.18
2023-05-21T18:26:37.847Z,19.03
2023-05-21T18:29:06.294Z,18.87
2023-05-21T18:31:34.775Z,18.73
2023-05-21T18:34:03.341Z,18.58
2023-05-21T18:36:37.937Z,18.45
2023-05-21T18:39:07.088Z,18.31
2023-05-21T18:41:36.667Z,18.20
2023-05-21T18:44:05.864Z,18.07
2023-05-21T18:46:34.407Z,17.95
2023-05-21T18:49:03.037Z,17.85
2023-05-21T18:51:31.507Z,17.69
2023-05-21T18:54:00.127Z,17.62
2023-05-21T18:56:28.601Z,17.50
2023-05-21T18:58:57.277Z,17.39
2023-05-21T19:01:25.966Z,17.28
2023-05-21T19:03:54.555Z,17.16
2023-05-21T19:06:24.850Z,17.05
2023-05-21T19:08:53.585Z,16.94
2023-05-21T19:11:23.673Z,16.83
2023-05-21T19:13:52.376Z,16.72
2023-05-21T19:16:20.895Z,16.62
2023-05-21T19:18:49.428Z,16.45
2023-05-21T19:21:18.156Z,16.39
2023-05-21T19:23:53.205Z,16.28
2023-05-21T19:26:22.911Z,16.17
2023-05-21T19:28:54.065Z,16.06
2023-05-21T19:31:23.363Z,15.95
2023-05-21T19:33:52.222Z,15.84
2023-05-21T19:36:21.408Z,15.72
2023-05-21T19:38:50.430Z,15.64
2023-05-21T19:41:19.571Z,15.54
2023-05-21T19:43:48.208Z,15.45
2023-05-21T19:46:19.845Z,15.30
2023-05-21T19:48:50.253Z,15.25
2023-05-21T19:51:19.135Z,15.14
2023-05-21T19:53:47.749Z,15.07
2023-05-21T19:56:16.424Z,15.03
2023-05-21T19:58:47.543Z,14.99
2023-05-21T20:01:17.156Z,14.94
2023-05-21T20:03:45.635Z,14.87
2023-05-21T20:06:18.355Z,14.78
2023-05-21T20:08:47.044Z,14.70
2023-05-21T20:11:15.687Z,14.62
2023-05-21T20:13:49.395Z,14.52
2023-05-21T20:16:18.263Z,14.50
2023-05-21T20:18:47.193Z,14.45
2023-05-21T20:21:16.914Z,14.39
2023-05-21T20:23:45.639Z,14.27
2023-05-21T20:26:14.957Z,14.23
2023-05-21T20:28:43.643Z,14.15
2023-05-21T20:31:12.622Z,14.09
2023-05-21T20:33:41.236Z,14.05
2023-05-21T20:36:10.574Z,14.04
2023-05-21T20:38:41.484Z,13.97
2023-05-21T20:41:09.873Z,14.01
2023-05-21T20:43:38.414Z,14.00
2023-05-21T20:46:07.084Z,13.94
2023-05-21T20:48:37.138Z,13.99
2023-05-21T20:51:06.248Z,13.96
2023-05-21T20:53:35.075Z,13.94
2023-05-21T20:56:07.391Z,13.90
2023-05-21T20:58:35.815Z,13.86
2023-05-21T21:01:04.387Z,13.83
2023-05-21T21:03:34.300Z,13.79
2023-05-21T21:06:03.685Z,13.75
2023-05-21T21:08:34.021Z,13.72
2023-05-21T21:11:02.458Z,13.67
2023-05-21T21:13:30.814Z,13.63
2023-05-21T21:15:59.394Z,13.60
2023-05-21T21:18:27.959Z,13.52
2023-05-21T21:20:56.511Z,13.52
2023-05-21T21:23:27.598Z,13.47
2023-05-21T21:25:56.429Z,13.41
2023-05-21T21:28:25.024Z,13.36
2023-05-21T21:30:53.613Z,13.33
2023-05-21T21:33:24.182Z,13.31
2023-05-21T21:35:52.847Z,13.24
2023-05-21T21:38:21.358Z,13.25
2023-05-21T21:40:50.190Z,13.23
2023-05-21T21:43:18.538Z,13.28
2023-05-21T21:45:46.937Z,13.23
2023-05-21T21:48:16.293Z,13.26
2023-05-21T21:50:45.442Z,13.23
2023-05-21T21:53:13.768Z,13.22
2023-05-21T21:55:42.193Z,13.19
2023-05-21T21:58:11.036Z,13.11
2023-05-21T22:00:39.808Z,13.10
2023-05-21T22:03:08.708Z,13.02
2023-05-21T22:05:37.564Z,13.00
2023-05-21T22:08:06.318Z,12.94
2023-05-21T22:10:37.425Z,12.89
2023-05-21T22:13:06.068Z,12.86
2023-05-21T22:15:34.535Z,12.83
2023-05-21T22:18:03.082Z,12.82
2023-05-21T22:20:32.890Z,12.84
2023-05-21T22:23:01.468Z,12.85
2023-05-21T22:25:30.032Z,12.80
2023-05-21T22:27:58.405Z,12.84
2023-05-21T22:30:26.674Z,12.79
2023-05-21T22:32:56.126Z,12.77
2023-05-21T22:35:24.884Z,12.72
2023-05-21T22:37:53.233Z,12.61
2023-05-21T22:40:21.664Z,12.61
2023-05-21T22:42:50.146Z,12.54
2023-05-21T22:45:20.212Z,12.50
2023-05-21T22:47:51.189Z,12.45
2023-05-21T22:50:19.699Z,12.41
2023-05-21T22:52:48.085Z,12.40
2023-05-21T22:55:16.982Z,12.39
2023-05-21T22:57:45.939Z,12.38
2023-05-21T23:00:18.516Z,12.38
2023-05-21T23:02:47.382Z,12.37
2023-05-21T23:05:17.610Z,12.34
2023-05-21T23:07:46.391Z,12.32
2023-05-21T23:10:14.961Z,12.28
2023-05-21T23:12:43.410Z,12.23
2023-05-21T23:15:12.837Z,12.19
2023-05-21T23:17:41.215Z,12.13
2023-05-21T23:20:10.929Z,12.08
2023-05-21T23:22:39.505Z,12.04
2023-05-21T23:25:10.143Z,12.02
2023-05-21T23:27:38.631Z,12.00
2023-05-21T23:30:10.073Z,12.00
2023-05-21T23:32:38.586Z,11.99
2023-05-21T23:35:09.369Z,11.98
2023-05-21T23:37:37.870Z,11.96
2023-05-21T23:40:09.206Z,11.93
2023-05-21T23:42:37.573Z,11.88
2023-05-21T23:45:08.411Z,11.79
2023-05-21T23:47:36.986Z,11.74
2023-05-21T23:50:08.567Z,11.70
2023-05-21T23:52:36.990Z,11.65
2023-05-21T23:55:07.623Z,11.64
2023-05-21T23:57:36.210Z,11.63
